sensor_id;sensor_type;location;lat;lon;timestamp;P1;durP1;ratioP1;P2;durP2;ratioP2
53646;SDS011;39550;52.230;5.194;2023-04-01T00:00:27;10.50;;;5.20;;
53646;SDS011;39550;52.230;5.194;2023-04-01T00:02:52;10.45;;;5.22;;
53646;SDS011;39550;52.230;5.194;2023-04-01T00:05:18;10.15;;;4.63;;
53646;SDS011;39550;52.230;5.194;2023-04-01T00:07:43;9.15;;;5.35;;
53646;SDS011;39550;52.230;5.194;2023-04-01T00:10:09;11.05;;;5.35;;
53646;SDS011;39550;52.230;5.194;2023-04-01T00:12:36;9.30;;;5.03;;
53646;SDS011;39550;52.230;5.194;2023-04-01T00:15:03;12.73;;;5.30;;
53646;SDS011;39550;52.230;5.194;2023-04-01T00:17:34;11.82;;;5.38;;
53646;SDS011;39550;52.230;5.194;2023-04-01T00:20:00;10.13;;;5.15;;
53646;SDS011;39550;52.230;5.194;2023-04-01T00:22:26;14.05;;;6.22;;
53646;SDS011;39550;52.230;5.194;2023-04-01T00:24:52;9.70;;;5.03;;
53646;SDS011;39550;52.230;5.194;2023-04-01T00:27:18;10.38;;;5.35;;
53646;SDS011;39550;52.230;5.194;2023-04-01T00:29:45;7.45;;;4.55;;
53646;SDS011;39550;52.230;5.194;2023-04-01T00:32:11;10.80;;;5.43;;
53646;SDS011;39550;52.230;5.194;2023-04-01T00:34:37;9.60;;;5.18;;
53646;SDS011;39550;52.230;5.194;2023-04-01T00:37:04;12.48;;;5.15;;
53646;SDS011;39550;52.230;5.194;2023-04-01T00:39:30;11.18;;;5.43;;
53646;SDS011;39550;52.230;5.194;2023-04-01T00:41:57;11.50;;;6.00;;
53646;SDS011;39550;52.230;5.194;2023-04-01T00:44:24;9.32;;;5.70;;
53646;SDS011;39550;52.230;5.194;2023-04-01T00:46:51;9.85;;;5.65;;
53646;SDS011;39550;52.230;5.194;2023-04-01T00:49:21;11.02;;;5.90;;
53646;SDS011;39550;52.230;5.194;2023-04-01T00:51:50;8.88;;;5.50;;
53646;SDS011;39550;52.230;5.194;2023-04-01T00:54:19;9.93;;;5.80;;
53646;SDS011;39550;52.230;5.194;2023-04-01T00:56:50;10.57;;;5.43;;
53646;SDS011;39550;52.230;5.194;2023-04-01T00:59:31;9.05;;;5.38;;
53646;SDS011;39550;52.230;5.194;2023-04-01T01:02:00;12.73;;;6.40;;
53646;SDS011;39550;52.230;5.194;2023-04-01T01:04:28;10.88;;;6.53;;
53646;SDS011;39550;52.230;5.194;2023-04-01T01:12:39;14.65;;;7.15;;
53646;SDS011;39550;52.230;5.194;2023-04-01T01:15:26;14.10;;;6.90;;
53646;SDS011;39550;52.230;5.194;2023-04-01T01:31:50;11.15;;;6.88;;
53646;SDS011;39550;52.230;5.194;2023-04-01T01:37:01;13.75;;;6.75;;
53646;SDS011;39550;52.230;5.194;2023-04-01T01:39:33;12.13;;;6.88;;
53646;SDS011;39550;52.230;5.194;2023-04-01T01:42:02;12.43;;;6.50;;
53646;SDS011;39550;52.230;5.194;2023-04-01T01:44:31;11.75;;;6.68;;
53646;SDS011;39550;52.230;5.194;2023-04-01T01:46:59;11.10;;;6.20;;
53646;SDS011;39550;52.230;5.194;2023-04-01T01:49:25;10.98;;;5.97;;
53646;SDS011;39550;52.230;5.194;2023-04-01T01:51:55;11.50;;;5.85;;
53646;SDS011;39550;52.230;5.194;2023-04-01T01:54:21;11.20;;;6.63;;
53646;SDS011;39550;52.230;5.194;2023-04-01T01:56:47;9.90;;;6.20;;
53646;SDS011;39550;52.230;5.194;2023-04-01T01:59:16;13.10;;;6.47;;
53646;SDS011;39550;52.230;5.194;2023-04-01T02:01:47;12.32;;;6.50;;
53646;SDS011;39550;52.230;5.194;2023-04-01T02:06:43;9.82;;;5.60;;
53646;SDS011;39550;52.230;5.194;2023-04-01T02:09:15;9.75;;;6.05;;
53646;SDS011;39550;52.230;5.194;2023-04-01T02:11:51;11.32;;;5.60;;
53646;SDS011;39550;52.230;5.194;2023-04-01T02:14:21;9.35;;;5.40;;
53646;SDS011;39550;52.230;5.194;2023-04-01T02:17:09;10.65;;;6.25;;
53646;SDS011;39550;52.230;5.194;2023-04-01T02:19:39;8.48;;;5.25;;
53646;SDS011;39550;52.230;5.194;2023-04-01T02:22:11;8.35;;;5.00;;
53646;SDS011;39550;52.230;5.194;2023-04-01T02:24:41;9.05;;;5.20;;
53646;SDS011;39550;52.230;5.194;2023-04-01T02:27:09;8.15;;;5.30;;
53646;SDS011;39550;52.230;5.194;2023-04-01T02:29:35;8.55;;;5.45;;
53646;SDS011;39550;52.230;5.194;2023-04-01T02:32:00;9.25;;;5.13;;
53646;SDS011;39550;52.230;5.194;2023-04-01T02:34:27;11.32;;;5.70;;
53646;SDS011;39550;52.230;5.194;2023-04-01T02:36:53;9.38;;;4.90;;
53646;SDS011;39550;52.230;5.194;2023-04-01T02:39:20;8.77;;;4.65;;
53646;SDS011;39550;52.230;5.194;2023-04-01T02:41:45;9.85;;;5.15;;
53646;SDS011;39550;52.230;5.194;2023-04-01T02:44:12;8.32;;;5.30;;
53646;SDS011;39550;52.230;5.194;2023-04-01T02:46:38;8.13;;;5.07;;
53646;SDS011;39550;52.230;5.194;2023-04-01T02:49:04;8.38;;;4.93;;
53646;SDS011;39550;52.230;5.194;2023-04-01T02:51:30;7.82;;;5.00;;
53646;SDS011;39550;52.230;5.194;2023-04-01T02:53:55;9.00;;;5.45;;
53646;SDS011;39550;52.230;5.194;2023-04-01T02:56:20;8.45;;;4.40;;
53646;SDS011;39550;52.230;5.194;2023-04-01T02:58:46;9.30;;;4.93;;
53646;SDS011;39550;52.230;5.194;2023-04-01T03:01:11;7.10;;;4.85;;
53646;SDS011;39550;52.230;5.194;2023-04-01T03:03:37;6.70;;;4.72;;
53646;SDS011;39550;52.230;5.194;2023-04-01T03:06:06;8.45;;;5.30;;
53646;SDS011;39550;52.230;5.194;2023-04-01T03:08:33;8.30;;;5.40;;
53646;SDS011;39550;52.230;5.194;2023-04-01T03:10:59;6.85;;;5.10;;
53646;SDS011;39550;52.230;5.194;2023-04-01T03:13:24;8.63;;;5.40;;
53646;SDS011;39550;52.230;5.194;2023-04-01T03:15:50;9.13;;;5.40;;
53646;SDS011;39550;52.230;5.194;2023-04-01T03:18:16;8.85;;;5.20;;
53646;SDS011;39550;52.230;5.194;2023-04-01T03:20:41;9.13;;;5.32;;
53646;SDS011;39550;52.230;5.194;2023-04-01T03:23:07;8.10;;;5.22;;
53646;SDS011;39550;52.230;5.194;2023-04-01T03:25:32;9.70;;;5.50;;
53646;SDS011;39550;52.230;5.194;2023-04-01T03:27:58;12.18;;;6.00;;
53646;SDS011;39550;52.230;5.194;2023-04-01T03:30:24;8.68;;;5.22;;
53646;SDS011;39550;52.230;5.194;2023-04-01T03:32:50;9.02;;;5.38;;
53646;SDS011;39550;52.230;5.194;2023-04-01T03:35:15;10.50;;;5.63;;
53646;SDS011;39550;52.230;5.194;2023-04-01T03:37:40;9.07;;;5.55;;
53646;SDS011;39550;52.230;5.194;2023-04-01T03:40:06;9.30;;;5.70;;
53646;SDS011;39550;52.230;5.194;2023-04-01T03:42:31;11.88;;;6.40;;
53646;SDS011;39550;52.230;5.194;2023-04-01T03:44:57;9.38;;;5.70;;
53646;SDS011;39550;52.230;5.194;2023-04-01T03:47:22;8.57;;;6.15;;
53646;SDS011;39550;52.230;5.194;2023-04-01T03:49:48;11.30;;;6.38;;
53646;SDS011;39550;52.230;5.194;2023-04-01T03:52:13;9.95;;;5.40;;
53646;SDS011;39550;52.230;5.194;2023-04-01T03:54:38;9.95;;;5.72;;
53646;SDS011;39550;52.230;5.194;2023-04-01T03:57:04;9.15;;;5.93;;
53646;SDS011;39550;52.230;5.194;2023-04-01T03:59:30;8.77;;;5.68;;
53646;SDS011;39550;52.230;5.194;2023-04-01T04:01:55;9.00;;;6.03;;
53646;SDS011;39550;52.230;5.194;2023-04-01T04:04:21;8.15;;;5.47;;
53646;SDS011;39550;52.230;5.194;2023-04-01T04:06:46;10.38;;;6.07;;
53646;SDS011;39550;52.230;5.194;2023-04-01T04:09:11;9.65;;;6.22;;
53646;SDS011;39550;52.230;5.194;2023-04-01T04:11:37;9.80;;;6.03;;
53646;SDS011;39550;52.230;5.194;2023-04-01T04:14:02;9.25;;;6.07;;
53646;SDS011;39550;52.230;5.194;2023-04-01T04:16:28;7.50;;;5.57;;
53646;SDS011;39550;52.230;5.194;2023-04-01T04:18:53;8.18;;;5.65;;
53646;SDS011;39550;52.230;5.194;2023-04-01T04:21:18;10.38;;;6.35;;
53646;SDS011;39550;52.230;5.194;2023-04-01T04:23:44;8.70;;;5.55;;
53646;SDS011;39550;52.230;5.194;2023-04-01T04:26:10;8.98;;;5.95;;
53646;SDS011;39550;52.230;5.194;2023-04-01T04:28:37;9.27;;;5.47;;
53646;SDS011;39550;52.230;5.194;2023-04-01T04:31:02;9.23;;;5.57;;
53646;SDS011;39550;52.230;5.194;2023-04-01T04:33:30;8.48;;;5.00;;
53646;SDS011;39550;52.230;5.194;2023-04-01T04:35:56;8.70;;;5.22;;
53646;SDS011;39550;52.230;5.194;2023-04-01T04:38:23;10.45;;;6.03;;
53646;SDS011;39550;52.230;5.194;2023-04-01T04:40:48;9.18;;;5.72;;
53646;SDS011;39550;52.230;5.194;2023-04-01T04:43:14;8.68;;;5.30;;
53646;SDS011;39550;52.230;5.194;2023-04-01T04:45:41;8.45;;;5.45;;
53646;SDS011;39550;52.230;5.194;2023-04-01T04:48:10;8.43;;;5.60;;
53646;SDS011;39550;52.230;5.194;2023-04-01T04:50:43;7.35;;;5.05;;
53646;SDS011;39550;52.230;5.194;2023-04-01T04:53:15;9.48;;;5.63;;
53646;SDS011;39550;52.230;5.194;2023-04-01T04:55:43;8.63;;;5.28;;
53646;SDS011;39550;52.230;5.194;2023-04-01T05:00:37;9.23;;;5.30;;
53646;SDS011;39550;52.230;5.194;2023-04-01T05:03:03;8.93;;;5.10;;
53646;SDS011;39550;52.230;5.194;2023-04-01T05:05:28;9.98;;;5.05;;
53646;SDS011;39550;52.230;5.194;2023-04-01T05:07:54;8.45;;;5.05;;
53646;SDS011;39550;52.230;5.194;2023-04-01T05:10:19;9.95;;;5.43;;
53646;SDS011;39550;52.230;5.194;2023-04-01T05:12:45;7.50;;;4.97;;
53646;SDS011;39550;52.230;5.194;2023-04-01T05:15:11;8.35;;;5.57;;
53646;SDS011;39550;52.230;5.194;2023-04-01T05:17:36;8.40;;;5.88;;
53646;SDS011;39550;52.230;5.194;2023-04-01T05:20:01;9.23;;;5.90;;
53646;SDS011;39550;52.230;5.194;2023-04-01T05:22:27;8.82;;;5.97;;
53646;SDS011;39550;52.230;5.194;2023-04-01T05:24:53;8.93;;;5.65;;
53646;SDS011;39550;52.230;5.194;2023-04-01T05:27:18;8.93;;;5.40;;
53646;SDS011;39550;52.230;5.194;2023-04-01T05:29:43;8.63;;;5.55;;
53646;SDS011;39550;52.230;5.194;2023-04-01T05:32:09;10.13;;;6.43;;
53646;SDS011;39550;52.230;5.194;2023-04-01T05:34:34;8.70;;;5.45;;
53646;SDS011;39550;52.230;5.194;2023-04-01T05:37:00;8.90;;;5.63;;
53646;SDS011;39550;52.230;5.194;2023-04-01T05:39:25;8.65;;;5.78;;
53646;SDS011;39550;52.230;5.194;2023-04-01T05:41:51;8.73;;;5.38;;
53646;SDS011;39550;52.230;5.194;2023-04-01T05:44:16;8.73;;;5.88;;
53646;SDS011;39550;52.230;5.194;2023-04-01T05:46:41;9.85;;;5.32;;
53646;SDS011;39550;52.230;5.194;2023-04-01T05:49:07;8.07;;;5.50;;
53646;SDS011;39550;52.230;5.194;2023-04-01T05:51:33;9.35;;;5.57;;
53646;SDS011;39550;52.230;5.194;2023-04-01T05:53:58;8.27;;;5.45;;
53646;SDS011;39550;52.230;5.194;2023-04-01T05:56:23;8.32;;;5.70;;
53646;SDS011;39550;52.230;5.194;2023-04-01T05:58:51;8.63;;;5.22;;
53646;SDS011;39550;52.230;5.194;2023-04-01T06:01:18;10.23;;;5.68;;
53646;SDS011;39550;52.230;5.194;2023-04-01T06:03:43;8.65;;;5.85;;
53646;SDS011;39550;52.230;5.194;2023-04-01T06:06:11;7.88;;;5.85;;
53646;SDS011;39550;52.230;5.194;2023-04-01T06:08:40;8.93;;;5.90;;
53646;SDS011;39550;52.230;5.194;2023-04-01T06:53:20;7.85;;;5.35;;
53646;SDS011;39550;52.230;5.194;2023-04-01T06:55:53;6.70;;;4.90;;
53646;SDS011;39550;52.230;5.194;2023-04-01T06:58:26;7.63;;;5.35;;
53646;SDS011;39550;52.230;5.194;2023-04-01T07:01:01;8.00;;;5.10;;
53646;SDS011;39550;52.230;5.194;2023-04-01T07:06:16;7.72;;;4.95;;
53646;SDS011;39550;52.230;5.194;2023-04-01T07:08:58;7.07;;;5.28;;
53646;SDS011;39550;52.230;5.194;2023-04-01T07:11:31;7.53;;;5.30;;
53646;SDS011;39550;52.230;5.194;2023-04-01T07:14:19;7.80;;;5.22;;
53646;SDS011;39550;52.230;5.194;2023-04-01T07:19:29;8.20;;;5.50;;
53646;SDS011;39550;52.230;5.194;2023-04-01T07:24:29;7.15;;;4.90;;
53646;SDS011;39550;52.230;5.194;2023-04-01T07:26:59;7.80;;;4.75;;
53646;SDS011;39550;52.230;5.194;2023-04-01T07:29:25;8.43;;;5.55;;
53646;SDS011;39550;52.230;5.194;2023-04-01T07:51:21;9.70;;;6.38;;
53646;SDS011;39550;52.230;5.194;2023-04-01T07:54:02;9.57;;;6.20;;
53646;SDS011;39550;52.230;5.194;2023-04-01T07:59:09;8.40;;;5.47;;
53646;SDS011;39550;52.230;5.194;2023-04-01T08:02:04;9.60;;;5.80;;
53646;SDS011;39550;52.230;5.194;2023-04-01T08:07:51;11.25;;;6.32;;
53646;SDS011;39550;52.230;5.194;2023-04-01T08:10:20;11.88;;;7.25;;
53646;SDS011;39550;52.230;5.194;2023-04-01T08:13:11;11.10;;;7.55;;
53646;SDS011;39550;52.230;5.194;2023-04-01T08:31:48;9.90;;;7.13;;
53646;SDS011;39550;52.230;5.194;2023-04-01T08:34:25;12.70;;;7.97;;
53646;SDS011;39550;52.230;5.194;2023-04-01T08:37:03;10.43;;;7.30;;
53646;SDS011;39550;52.230;5.194;2023-04-01T08:39:33;12.93;;;7.68;;
53646;SDS011;39550;52.230;5.194;2023-04-01T08:56:26;13.93;;;7.75;;
53646;SDS011;39550;52.230;5.194;2023-04-01T09:01:44;9.55;;;6.47;;
53646;SDS011;39550;52.230;5.194;2023-04-01T09:04:30;11.18;;;7.43;;
53646;SDS011;39550;52.230;5.194;2023-04-01T09:10:15;11.20;;;6.97;;
53646;SDS011;39550;52.230;5.194;2023-04-01T09:18:26;11.13;;;6.60;;
53646;SDS011;39550;52.230;5.194;2023-04-01T09:21:20;9.55;;;6.03;;
53646;SDS011;39550;52.230;5.194;2023-04-01T09:30:40;10.75;;;6.18;;
53646;SDS011;39550;52.230;5.194;2023-04-01T09:38:57;10.20;;;6.05;;
53646;SDS011;39550;52.230;5.194;2023-04-01T09:41:29;10.07;;;6.40;;
53646;SDS011;39550;52.230;5.194;2023-04-01T09:46:48;11.43;;;6.93;;
53646;SDS011;39550;52.230;5.194;2023-04-01T10:02:52;10.10;;;7.07;;
53646;SDS011;39550;52.230;5.194;2023-04-01T10:08:48;11.93;;;7.45;;
53646;SDS011;39550;52.230;5.194;2023-04-01T10:11:57;13.57;;;7.78;;
53646;SDS011;39550;52.230;5.194;2023-04-01T10:46:36;11.25;;;7.07;;
53646;SDS011;39550;52.230;5.194;2023-04-01T11:09:29;8.68;;;6.47;;
53646;SDS011;39550;52.230;5.194;2023-04-01T11:22:52;8.60;;;5.70;;
53646;SDS011;39550;52.230;5.194;2023-04-01T11:25:42;10.82;;;5.90;;
53646;SDS011;39550;52.230;5.194;2023-04-01T11:31:29;9.60;;;6.13;;
53646;SDS011;39550;52.230;5.194;2023-04-01T11:36:53;9.30;;;5.45;;
53646;SDS011;39550;52.230;5.194;2023-04-01T11:39:44;8.23;;;5.35;;
53646;SDS011;39550;52.230;5.194;2023-04-01T11:45:16;7.30;;;5.45;;
53646;SDS011;39550;52.230;5.194;2023-04-01T11:47:53;8.35;;;5.20;;
53646;SDS011;39550;52.230;5.194;2023-04-01T11:50:35;9.07;;;5.88;;
53646;SDS011;39550;52.230;5.194;2023-04-01T12:01:20;8.57;;;5.72;;
53646;SDS011;39550;52.230;5.194;2023-04-01T12:06:51;8.93;;;5.78;;
53646;SDS011;39550;52.230;5.194;2023-04-01T12:18:40;9.05;;;6.35;;
53646;SDS011;39550;52.230;5.194;2023-04-01T12:21:32;8.95;;;6.35;;
53646;SDS011;39550;52.230;5.194;2023-04-01T12:26:33;9.05;;;6.30;;
53646;SDS011;39550;52.230;5.194;2023-04-01T12:45:26;10.23;;;6.30;;
53646;SDS011;39550;52.230;5.194;2023-04-01T12:56:26;10.20;;;6.35;;
53646;SDS011;39550;52.230;5.194;2023-04-01T12:59:24;8.57;;;6.53;;
53646;SDS011;39550;52.230;5.194;2023-04-01T13:04:56;10.65;;;7.03;;
53646;SDS011;39550;52.230;5.194;2023-04-01T13:34:37;10.05;;;6.40;;
53646;SDS011;39550;52.230;5.194;2023-04-01T13:40:23;8.90;;;6.13;;
53646;SDS011;39550;52.230;5.194;2023-04-01T13:42:54;10.32;;;6.47;;
53646;SDS011;39550;52.230;5.194;2023-04-01T13:45:26;9.10;;;6.28;;
53646;SDS011;39550;52.230;5.194;2023-04-01T14:15:41;9.65;;;6.70;;
53646;SDS011;39550;52.230;5.194;2023-04-01T14:26:15;8.73;;;7.03;;
53646;SDS011;39550;52.230;5.194;2023-04-01T14:40:40;9.55;;;6.15;;
53646;SDS011;39550;52.230;5.194;2023-04-01T14:49:19;8.77;;;5.80;;
53646;SDS011;39550;52.230;5.194;2023-04-01T14:51:48;8.55;;;6.13;;
53646;SDS011;39550;52.230;5.194;2023-04-01T14:54:21;8.02;;;5.82;;
53646;SDS011;39550;52.230;5.194;2023-04-01T14:57:09;9.50;;;6.32;;
53646;SDS011;39550;52.230;5.194;2023-04-01T14:59:38;9.18;;;6.15;;
53646;SDS011;39550;52.230;5.194;2023-04-01T15:21:48;8.80;;;6.75;;
53646;SDS011;39550;52.230;5.194;2023-04-01T15:24:22;9.05;;;6.95;;
53646;SDS011;39550;52.230;5.194;2023-04-01T15:32:45;8.43;;;6.20;;
53646;SDS011;39550;52.230;5.194;2023-04-01T15:57:20;7.63;;;5.78;;
53646;SDS011;39550;52.230;5.194;2023-04-01T16:03:13;9.77;;;6.15;;
53646;SDS011;39550;52.230;5.194;2023-04-01T16:11:43;8.45;;;6.18;;
53646;SDS011;39550;52.230;5.194;2023-04-01T16:22:45;8.60;;;6.00;;
53646;SDS011;39550;52.230;5.194;2023-04-01T16:25:39;8.65;;;5.57;;
53646;SDS011;39550;52.230;5.194;2023-04-01T16:30:56;7.75;;;5.43;;
53646;SDS011;39550;52.230;5.194;2023-04-01T16:33:30;7.80;;;5.50;;
53646;SDS011;39550;52.230;5.194;2023-04-01T16:44:24;6.97;;;4.80;;
53646;SDS011;39550;52.230;5.194;2023-04-01T16:47:06;7.40;;;5.25;;
53646;SDS011;39550;52.230;5.194;2023-04-01T16:49:46;7.38;;;5.20;;
53646;SDS011;39550;52.230;5.194;2023-04-01T16:52:29;7.72;;;4.90;;
53646;SDS011;39550;52.230;5.194;2023-04-01T16:55:12;6.72;;;5.15;;
53646;SDS011;39550;52.230;5.194;2023-04-01T17:02:52;6.30;;;4.28;;
53646;SDS011;39550;52.230;5.194;2023-04-01T17:17:14;6.50;;;4.70;;
53646;SDS011;39550;52.230;5.194;2023-04-01T17:25:25;6.70;;;4.00;;
53646;SDS011;39550;52.230;5.194;2023-04-01T17:36:09;5.93;;;4.43;;
53646;SDS011;39550;52.230;5.194;2023-04-01T17:41:18;5.35;;;3.65;;
53646;SDS011;39550;52.230;5.194;2023-04-01T17:43:58;6.47;;;4.18;;
53646;SDS011;39550;52.230;5.194;2023-04-01T17:55:04;5.70;;;3.85;;
53646;SDS011;39550;52.230;5.194;2023-04-01T17:57:52;5.80;;;4.00;;
53646;SDS011;39550;52.230;5.194;2023-04-01T18:03:44;5.32;;;3.75;;
53646;SDS011;39550;52.230;5.194;2023-04-01T18:06:36;5.40;;;3.60;;
53646;SDS011;39550;52.230;5.194;2023-04-01T18:11:49;5.15;;;3.55;;
53646;SDS011;39550;52.230;5.194;2023-04-01T18:22:45;5.32;;;3.97;;
53646;SDS011;39550;52.230;5.194;2023-04-01T18:25:22;6.03;;;3.90;;
53646;SDS011;39550;52.230;5.194;2023-04-01T18:27:59;5.50;;;3.90;;
53646;SDS011;39550;52.230;5.194;2023-04-01T18:30:42;5.68;;;4.10;;
53646;SDS011;39550;52.230;5.194;2023-04-01T18:36:10;4.93;;;3.45;;
53646;SDS011;39550;52.230;5.194;2023-04-01T18:38:45;5.18;;;3.80;;
53646;SDS011;39550;52.230;5.194;2023-04-01T18:44:28;5.47;;;3.83;;
53646;SDS011;39550;52.230;5.194;2023-04-01T18:50:11;5.13;;;3.50;;
53646;SDS011;39550;52.230;5.194;2023-04-01T18:52:45;5.75;;;3.67;;
53646;SDS011;39550;52.230;5.194;2023-04-01T18:55:21;5.70;;;3.85;;
53646;SDS011;39550;52.230;5.194;2023-04-01T18:57:54;5.18;;;3.65;;
53646;SDS011;39550;52.230;5.194;2023-04-01T19:00:38;5.80;;;3.75;;
53646;SDS011;39550;52.230;5.194;2023-04-01T19:03:23;5.22;;;3.92;;
53646;SDS011;39550;52.230;5.194;2023-04-01T19:05:53;5.88;;;4.15;;
53646;SDS011;39550;52.230;5.194;2023-04-01T19:21:33;5.63;;;4.20;;
53646;SDS011;39550;52.230;5.194;2023-04-01T19:35:34;5.82;;;4.50;;
53646;SDS011;39550;52.230;5.194;2023-04-01T19:43:19;5.60;;;4.20;;
53646;SDS011;39550;52.230;5.194;2023-04-01T19:46:36;6.35;;;4.75;;
53646;SDS011;39550;52.230;5.194;2023-04-01T19:52:05;7.65;;;5.28;;
53646;SDS011;39550;52.230;5.194;2023-04-01T20:05:04;6.78;;;5.47;;
53646;SDS011;39550;52.230;5.194;2023-04-01T20:08:03;7.38;;;5.72;;
53646;SDS011;39550;52.230;5.194;2023-04-01T20:16:19;6.68;;;5.55;;
53646;SDS011;39550;52.230;5.194;2023-04-01T20:19:00;8.27;;;5.65;;
53646;SDS011;39550;52.230;5.194;2023-04-01T20:26:39;8.77;;;5.90;;
53646;SDS011;39550;52.230;5.194;2023-04-01T20:37:40;7.55;;;5.72;;
53646;SDS011;39550;52.230;5.194;2023-04-01T20:40:34;7.13;;;5.57;;
53646;SDS011;39550;52.230;5.194;2023-04-01T20:43:24;8.45;;;6.07;;
53646;SDS011;39550;52.230;5.194;2023-04-01T20:46:00;7.55;;;5.25;;
53646;SDS011;39550;52.230;5.194;2023-04-01T20:48:57;7.93;;;6.10;;
53646;SDS011;39550;52.230;5.194;2023-04-01T20:51:36;7.68;;;6.20;;
53646;SDS011;39550;52.230;5.194;2023-04-01T21:07:35;7.25;;;5.82;;
53646;SDS011;39550;52.230;5.194;2023-04-01T21:15:57;9.68;;;6.05;;
53646;SDS011;39550;52.230;5.194;2023-04-01T21:32:23;8.25;;;5.90;;
53646;SDS011;39550;52.230;5.194;2023-04-01T21:37:57;8.00;;;6.18;;
53646;SDS011;39550;52.230;5.194;2023-04-01T21:49:14;9.90;;;6.97;;
53646;SDS011;39550;52.230;5.194;2023-04-01T22:05:51;9.93;;;7.07;;
53646;SDS011;39550;52.230;5.194;2023-04-01T22:11:09;9.35;;;7.22;;
53646;SDS011;39550;52.230;5.194;2023-04-01T22:16:11;7.95;;;6.43;;
53646;SDS011;39550;52.230;5.194;2023-04-01T22:18:48;10.30;;;7.03;;
53646;SDS011;39550;52.230;5.194;2023-04-01T22:25:00;11.18;;;6.88;;
53646;SDS011;39550;52.230;5.194;2023-04-01T22:30:03;8.35;;;7.03;;
53646;SDS011;39550;52.230;5.194;2023-04-01T22:32:41;9.93;;;6.97;;
53646;SDS011;39550;52.230;5.194;2023-04-01T22:43:39;9.20;;;6.88;;
53646;SDS011;39550;52.230;5.194;2023-04-01T22:49:20;8.82;;;6.45;;
53646;SDS011;39550;52.230;5.194;2023-04-01T22:51:57;11.00;;;6.90;;
53646;SDS011;39550;52.230;5.194;2023-04-01T23:05:12;9.70;;;6.97;;
53646;SDS011;39550;52.230;5.194;2023-04-01T23:12:59;10.35;;;7.28;;
53646;SDS011;39550;52.230;5.194;2023-04-01T23:15:27;11.45;;;7.57;;
53646;SDS011;39550;52.230;5.194;2023-04-01T23:18:17;9.93;;;7.88;;
53646;SDS011;39550;52.230;5.194;2023-04-01T23:26:23;11.32;;;8.30;;
53646;SDS011;39550;52.230;5.194;2023-04-01T23:28:51;10.93;;;7.75;;
53646;SDS011;39550;52.230;5.194;2023-04-01T23:31:31;10.02;;;7.85;;
53646;SDS011;39550;52.230;5.194;2023-04-01T23:34:21;9.38;;;7.45;;
53646;SDS011;39550;52.230;5.194;2023-04-01T23:36:50;13.75;;;8.45;;
53646;SDS011;39550;52.230;5.194;2023-04-01T23:39:38;10.10;;;8.10;;
53646;SDS011;39550;52.230;5.194;2023-04-01T23:42:06;10.40;;;8.00;;
53646;SDS011;39550;52.230;5.194;2023-04-01T23:44:44;10.37;;;7.73;;
53646;SDS011;39550;52.230;5.194;2023-04-01T23:47:16;10.55;;;7.53;;
53646;SDS011;39550;52.230;5.194;2023-04-01T23:49:48;11.32;;;7.22;;
53646;SDS011;39550;52.230;5.194;2023-04-01T23:52:27;10.27;;;7.93;;
53646;SDS011;39550;52.230;5.194;2023-04-01T23:57:27;9.65;;;7.80;;
